Tiempo atmosférico en la estación meteorológica de Melilla, Melilla (47 m.)



Fecha
DESCASC
Temp. máxima en grados centígrados (hora)
DESCASC
Temp. mínima en grados centígrados (hora)
DESCASC
Temp. media en grados centígrados
DESCASC
Racha de viento máxima en m/sg (hora)
DESCASC
Velocidad máxima media en intervalos de 10 minutos(hora)
DESCASC
Precipitaciones diarias en mm
DESCASC
Precipitaciones de 00:00 a 06:00 en mm
DESCASC
Precipitaciones de 06:00 a 12:00 en mm
DESCASC
Precipitaciones de 12:00 a 18:00 en mm
DESCASC
Precipitaciones de 18:00 a 24:00 en mm
DESCASC
22-11-2020 19.2 (12:40) 12.2 (08:00) 15.7 10.83 (00:20) 6.94 (00:20) 0 0 0 0 0
21-11-2020 20.5 (12:00) 15.2 (07:50) 17.8 11.67 (19:50) 7.78 (21:00) 0 0 0 0 0
20-11-2020 21.2 (13:10) 13.2 (08:00) 17.2 6.39 (13:10) 5 (23:40) 0 0 0 0 0
19-11-2020 20.4 (14:00) 16.6 (00:00) 18.5 8.33 (15:20) 5.83 (15:10) 0 0 0 0 0
18-11-2020 -- (--) -- (--) -- -- (--) -- (--) -- 0 -- -- 0
17-11-2020 22 (00:00) 17.6 (00:00) 19.8 8.89 (14:30) 6.39 (14:30) 0 0 0 0 0
16-11-2020 28.4 (12:20) 17 (00:00) 22.7 10 (19:10) 5.28 (16:00) 0 0 0 0 0
15-11-2020 23.3 (11:50) 14.7 (00:00) 19 4.17 (13:40) 3.06 (12:40) 0 0 0 0 0
14-11-2020 21.8 (12:10) 16 (00:00) 18.9 5 (16:40) 3.61 (15:00) 0 0 0 0 0
13-11-2020 21 (13:50) 16.2 (00:00) 18.6 4.17 (15:00) 3.06 (15:10) 0 0 0 0 0
12-11-2020 21 (12:10) 17.1 (00:00) 19.1 6.67 (01:40) 4.72 (01:50) 0 0 0 0 0
11-11-2020 20.6 (11:10) 16.5 (00:00) 18.6 24.72 (14:30) 6.11 (14:20) 0 0 0 0 0
10-11-2020 21.2 (12:20) 13.2 (00:00) 17.2 5.28 (20:30) 3.61 (22:50) 0 0 0 0 0
09-11-2020 21.5 (15:30) 13.7 (00:00) 17.6 5.83 (17:10) 3.06 (13:20) 0 0 0 0 0
08-11-2020 21.7 (11:20) 15.3 (00:00) 18.5 5.83 (13:20) 4.44 (13:10) 0 0 0 0 0
07-11-2020 24.6 (11:30) 16.3 (00:00) 20.4 11.11 (01:20) 7.22 (13:50) 1.2 1.2 0 0 0
06-11-2020 34 (16:40) 18.3 (00:00) 26.1 18.61 (11:40) 12.22 (11:50) 0 0 0 0 0
05-11-2020 24.1 (15:00) 17.1 (00:00) 20.6 7.5 (13:00) 5 (13:00) 0 0 0 0 0
04-11-2020 21.9 (13:10) 16.2 (00:00) 19.1 5.83 (16:40) 4.17 (16:40) 0 0 0 0 0
03-11-2020 20.4 (13:40) 13.9 (00:00) 17.1 5.56 (14:00) 3.89 (14:00) 0 0 0 0 0
02-11-2020 21.8 (15:00) 14.1 (00:00) 17.9 5 (13:10) 3.33 (11:20) 0 0 0 0 0
01-11-2020 20.1 (16:10) 13.4 (00:00) 16.8 6.11 (12:10) 2.78 (14:40) 0 0 0 0 0
31-10-2020 21.8 (12:10) 15.3 (00:00) 18.5 5.56 (11:50) 3.33 (06:40) 0 0 0 0 0
30-10-2020 22 (12:20) 16.5 (00:00) 19.3 6.39 (14:50) 4.17 (14:30) 0 0 0 0 0
29-10-2020 22.6 (12:10) 13.3 (00:00) 18 6.67 (12:20) -- (--) -- 0 -- 0 0
28-10-2020 21.9 (11:50) 12 (00:00) 16.9 5.28 (13:50) 3.89 (14:30) 0 0 0 0 0

Gráficas

Temp. máximas Temp. mínimas Temp. medias Precipitaciones Rachas de viento máximas Velocidades máximas media en intervalos de 10 minutos

Datos horarios

Fecha y hora oficial Temperatura (ºC) Velocidad del viento (km/h) Dirección del viento Racha (km/h) Dirección de racha Precipitación (mm) Presión (hPa) Tendencia (hPa) Humedad (%)
2020-11-26 23:00:00 11.6 19 Sur 34 Sur 1 1001.3 -1.7 81
2020-11-26 22:00:00 11.4 5 Este 12 Sudeste 1.6 1002.3 -0.4 90
2020-11-26 21:00:00 12.2 3 Norte 9 Noroeste 2 1002.9 0.6 87
2020-11-26 20:00:00 12.5 3 Oeste 12 Norte 0.4 1003 0.7 83
2020-11-26 19:00:00 13 4 Sudoeste 31 Oeste 0.6 1002.7 0.2 75
2020-11-26 18:00:00 14 19 Sudoeste 32 Sudoeste 0 1002.3 0 67
2020-11-26 17:00:00 14.3 7 Nordeste 17 Sudeste 3 1002.3 -0.3 80
2020-11-26 16:00:00 16 3 Norte 11 Este 0 1002.5 -1 76
2020-11-26 15:00:00 16.2 9 Nordeste 17 Norte 0 1002.3 -1.8 73
2020-11-26 14:00:00 17 10 Nordeste 16 Nordeste 0 1002.6 -1.8 67
2020-11-26 13:00:00 16.8 5 Nordeste 14 Norte 0 1003.5 -0.4 70
2020-11-26 12:00:00 15.8 8 Noroeste 19 Oeste 0 1004.1 -- 74
2020-11-26 11:00:00 15.7 9 Oeste 24 Sudoeste 0 1004.4 -- 78
2020-11-26 10:00:00 15.3 9 Noroeste 28 Noroeste 0.2 1003.9 -- 87
2020-11-26 09:00:00 16 13 Oeste 22 Sudoeste 0 1003 -- 81
2020-11-26 08:00:00 15.8 6 Oeste 17 Oeste 0 1001.7 -- 84
2020-11-26 07:00:00 15.5 7 Oeste 13 Oeste 0 1001 -- 83
2020-11-26 06:00:00 15.1 3 Oeste 9 Norte 0 1000.5 -- 78
2020-11-26 05:00:00 15.1 5 Noroeste 12 Noroeste 0 1000.7 -- 74
2020-11-26 04:00:00 14.8 7 Sudoeste 12 Noroeste 0 1001.5 -- 86
2020-11-26 03:00:00 15.2 5 Oeste 10 Sudoeste 0 1001.7 -- 85
2020-11-26 02:00:00 15.4 5 Sudoeste 11 Sudoeste 0 1002.8 -- 80
2020-11-26 01:00:00 16 3 Sur 10 Sudoeste 0 1003.8 -- 82
2020-11-26 00:00:00 16.8 3 Noroeste 6 Noroeste 0 1004 -- 82
2020-11-25 23:00:00 16.7 2 Sur 6 Sur 0 1004.8 -- 78
2020-11-25 22:00:00 16.5 3 Sur 7 Sur 0 1005.3 -- 78
2020-11-25 21:00:00 16.4 5 Este 10 Sudeste 0 1005.3 -- 75
2020-11-25 20:00:00 16.8 5 Sudeste 9 Sudeste 0 1005.7 -- 71
2020-11-25 19:00:00 17.2 6 Sudeste 14 Sudeste 0 1006 -- 70
2020-11-25 18:00:00 17.6 8 Sudeste 18 Sudeste 0 1005.9 -- 68
2020-11-25 17:00:00 18.8 12 Este 22 Este 0 1006 -- 60
2020-11-25 16:00:00 19.7 14 Este 21 Este 0 1006.5 -- 58
2020-11-25 15:00:00 19.1 12 Este 24 Este 0 1007.1 -- 53
2020-11-25 14:00:00 20 19 Nordeste 25 Este 0 1008 -- 52
2020-11-25 13:00:00 21.4 12 Sudeste -- -- -- 1009.4 -- 40
2020-11-25 12:00:00 21.4 13 Sudeste 21 Sudeste 0 1010.7 -- 39
2020-11-25 11:00:00 20.2 12 Sudeste 17 Sudeste 0 1011.6 -- 43
2020-11-25 10:00:00 15.4 0 Calma 6 Sudoeste 0 1011.9 -- 62
2020-11-25 09:00:00 12.7 3 Sudoeste 6 Sudoeste 0 1012.1 -- 72
2020-11-25 08:00:00 11.7 3 Oeste 6 Noroeste 0 1012.2 -- 73
2020-11-25 07:00:00 11.7 6 Noroeste 8 Oeste 0 1012.2 -- 71
2020-11-25 06:00:00 12.6 3 Noroeste 9 Sudoeste 0 1012.4 -- 74
2020-11-25 05:00:00 12.9 6 Sudoeste 9 Sudoeste 0 1012.7 -- 72
2020-11-25 04:00:00 14 7 Sudoeste 14 Oeste 0 1013 -- 86
2020-11-25 03:00:00 13.6 8 Oeste 12 Oeste 0 1013.5 -- 78
2020-11-25 02:00:00 12.4 3 Oeste 11 Sudoeste 0 1013.8 -- 74
2020-11-25 01:00:00 11.8 3 Oeste 8 Noroeste 0 1014.2 -- 66
2020-11-25 00:00:00 11.9 4 Oeste 8 Sudoeste 0 1014.3 -- 68
2020-11-24 23:00:00 12.5 5 Oeste 10 Sudoeste 0 1014.6 -- 68
2020-11-24 22:00:00 13 3 Oeste 9 Sudoeste 0 1014.8 -- 69
2020-11-24 21:00:00 13.3 5 Oeste 8 Sudoeste 0 1015.1 -- 74
2020-11-24 20:00:00 14.3 5 Oeste 10 Sudoeste 0 1015.1 -- 71
2020-11-24 19:00:00 15.4 5 Sudoeste 7 Sudoeste 0 1015 -- 71
2020-11-24 18:00:00 16.3 5 Nordeste 9 Norte 0 1014.7 -- 71
2020-11-24 17:00:00 17.1 6 Norte 14 Nordeste 0 1014.8 -- 63
2020-11-24 16:00:00 17.5 12 Nordeste 17 Nordeste 0 1014.8 -- 62
2020-11-24 15:00:00 18.1 9 Nordeste 15 Este 0 1015.4 -- 58
2020-11-24 14:00:00 18.3 9 Este 16 Este 0 1016.1 -- 60
2020-11-24 13:00:00 17.8 10 Este 15 Este 0 1017 -- 62
2020-11-24 12:00:00 18.1 11 Este 17 Este 0 1018.1 -- 58
2020-11-24 11:00:00 17.8 5 Noroeste 9 Noroeste 0 1018.4 -- 54
2020-11-24 10:00:00 14.8 0 Calma 5 Sudeste 0 1018.3 -- 71
2020-11-24 09:00:00 11.7 2 Sudeste 9 Oeste 0 1018.1 -- 80
2020-11-24 08:00:00 11.4 5 Sudoeste 10 Sudoeste 0 1018 -- 83
2020-11-24 07:00:00 11.9 3 Oeste 10 Oeste 0 1017.7 -- 83
2020-11-24 06:00:00 12.3 7 Sudoeste 11 Sudoeste 0 1017.7 -- 80
2020-11-24 05:00:00 12.9 9 Sudoeste 11 Sudoeste 0 1017.6 -- 84
2020-11-24 04:00:00 13.6 7 Sudoeste 9 Sudoeste 0 1018.1 -- 84
2020-11-24 03:00:00 14 4 Sudoeste 6 Sudoeste 0 1018.4 -- 82
2020-11-24 02:00:00 14.8 4 Sudeste 11 Este 0 1019 -- 80
2020-11-24 01:00:00 15.2 6 Este 10 Este 0 1019.3 -- 79
2020-11-24 00:00:00 15.3 4 Sudoeste 13 Este 0 1019.7 -- 79
2020-11-23 23:00:00 15.7 7 Este 14 Sudeste 0 1019.9 -- 78
2020-11-23 22:00:00 15.4 5 Sudeste 11 Sudeste 0 1019.9 -- 79
2020-11-23 21:00:00 15.2 6 Sudeste 15 Sudeste 0 1019.9 -- 77
2020-11-23 20:00:00 15.9 7 Sudeste 16 Sudeste 0 1019.8 -- 73
2020-11-23 19:00:00 16.2 9 Sudeste 17 Sudeste 0 1019.7 -- 65
2020-11-23 18:00:00 16.6 9 Este 19 Este 0 1019.4 -- 59
2020-11-23 17:00:00 17.4 14 Este 20 Sudeste 0 1019.2 -- 55
2020-11-23 16:00:00 17.6 15 Este 23 Este 0 1019.4 -- 57
2020-11-23 15:00:00 17.9 14 Este 22 Este 0 1019.7 -- 53
2020-11-23 14:00:00 17.6 13 Este 23 Nordeste 0 1020.4 -- 54
2020-11-23 13:00:00 17.6 16 Este 22 Este 0 1021 -- 52
2020-11-23 12:00:00 17.8 14 Este 22 Este 0 1021.7 -- 55
2020-11-23 11:00:00 18.1 9 Sudeste 19 Sudeste 0 1021.9 -- 54
2020-11-23 10:00:00 17.1 9 Sudeste 17 Sudeste 0 1021.5 -- 57
2020-11-23 09:00:00 13.1 3 Este 9 Sur 0 1021 -- 67
2020-11-23 08:00:00 12.2 5 Sur 8 Sudeste 0 1020.6 -- 69
2020-11-23 07:00:00 12.4 5 Sur 8 Sur 0 1020.3 -- 68
2020-11-23 06:00:00 12.6 5 Sudoeste 7 Sudoeste 0 1020.1 -- 71
2020-11-23 05:00:00 12.8 5 Sur 10 Sur 0 1020 -- 74
2020-11-23 04:00:00 13.1 6 Sur 10 Sur 0 1020.2 -- 75
2020-11-23 03:00:00 13.7 6 Sur 12 Sur 0 1020.2 -- 74
2020-11-23 02:00:00 14.1 6 Sur 11 Sur 0 1020.4 -- 77
2020-11-23 01:00:00 14.6 7 Sur 17 Sur 0 1020.4 -- 75
2020-11-23 00:00:00 15.4 9 Sur 23 Este 0 1020.5 -- 72
2020-11-22 23:00:00 15.7 13 Este 22 Este 0 1020.6 -- 68
2020-11-22 22:00:00 15.2 10 Sudeste 19 Sudeste 0 1020.7 -- 66
2020-11-22 21:00:00 15.2 10 Este 15 Este 0 1020.7 -- 64
2020-11-22 20:00:00 15.5 10 Este 18 Este 0 1020.5 -- 65
2020-11-22 19:00:00 15.8 10 Este 22 Este 0 1020.2 -- 64
2020-11-22 18:00:00 16.2 14 Este 23 Este 0 1020 -- 61
2020-11-22 17:00:00 17.1 15 Este 29 Este 0 1019.6 -- 56
2020-11-22 16:00:00 17.9 18 Este 27 Este 0 1019.6 -- 50
2020-11-22 15:00:00 18.2 17 Este 25 Este 0 1019.8 -- 49
2020-11-22 14:00:00 18.4 14 Este 23 Este 0 1020.4 -- 44
2020-11-22 13:00:00 18.4 16 Este 26 Este 0 1021.2 -- 41
2020-11-22 12:00:00 18.6 14 Sudeste 22 Sudeste 0 1021.9 -- 37
2020-11-22 11:00:00 18 12 Sudeste 21 Sudeste 0 1022.3 -- 36
2020-11-22 10:00:00 16.7 12 Sudeste 18 Sudeste 0 1022 -- 45
2020-11-22 09:00:00 14.3 6 Sudeste 11 Sudeste 0 1021.5 -- 58
2020-11-22 08:00:00 12.3 5 Sur 11 Sudeste 0 1021.1 -- 64
2020-11-22 07:00:00 12.5 9 Sudeste 13 Sudeste 0 1020.8 -- 64
2020-11-22 06:00:00 13.3 9 Sudeste 17 Sur 0 1020.7 -- 60
2020-11-22 05:00:00 13.9 9 Sur 20 Sudeste 0 1020.7 -- 61
2020-11-22 04:00:00 14.4 10 Sudeste 24 Sudeste 0 1020.5 -- 65
2020-11-22 03:00:00 15.1 14 Sudeste 27 Sudeste 0 1020.6 -- 63
2020-11-22 02:00:00 15.7 17 Sudeste 35 Este 0 1020.7 -- 65
2020-11-22 01:00:00 16.2 22 Este 39 Este 0 1021.3 -- 59
2020-11-22 00:00:00 16.6 21 Este 41 Este 0 1021.1 -- 61
2020-11-21 23:00:00 16.8 22 Este 38 Este 0 1021.1 -- 64
2020-11-21 22:00:00 16.9 25 Este 41 Este 0 1021 -- 65
2020-11-21 21:00:00 17.2 28 Este 41 Este 0 1020.8 -- 62
2020-11-21 20:00:00 17.4 21 Este 42 Este 0 1020.2 -- 59
2020-11-21 19:00:00 17.5 22 Este 33 Este 0 1019.8 -- 60
2020-11-21 18:00:00 17.6 19 Este 33 Este 0 1019.4 -- 59
2020-11-21 17:00:00 18.3 18 Este 29 Este 0 1018.9 -- 63
2020-11-21 16:00:00 18.3 15 Este 28 Este 0 1018.7 -- 63
2020-11-21 15:00:00 18.1 22 Este 31 Este 0 1018.8 -- 74
2020-11-21 14:00:00 19.1 17 Este 24 Este 0 1019.1 -- 69
2020-11-21 13:00:00 19.6 13 Este 21 Este 0 1019.8 -- 66
2020-11-21 12:00:00 20.4 11 Sudeste 22 Este 0 1020.3 -- 63
2020-11-21 11:00:00 19.5 9 Sudeste 18 Sudeste 0 1020.4 -- 69
2020-11-21 10:00:00 17.4 7 Sur 12 Sur 0 1019.8 -- 81
2020-11-21 09:00:00 16.2 3 Este 14 Sur 0 1019.7 -- 82
2020-11-21 08:00:00 15.3 6 Sudeste 13 Sur 0 1018.9 -- 85
2020-11-21 07:00:00 15.8 8 Sur 18 Sur 0 1018.4 -- 83
2020-11-21 06:00:00 15.9 8 Sudeste 15 Sur 0 1018.4 -- 83
2020-11-21 05:00:00 15.6 7 Sudeste 16 Sudeste 0 1018.3 -- 86
2020-11-21 04:00:00 16.3 8 Sudeste 18 Sudeste 0 1018.5 -- 84
2020-11-21 03:00:00 16.8 12 Este 17 Este 0 1018.2 -- 82
2020-11-21 02:00:00 17.1 13 Este 24 Este 0 1018.5 -- 81
2020-11-21 01:00:00 17.5 17 Este 26 Este 0 1018.8 -- 81
2020-11-21 00:00:00 17.7 15 Este 23 Este 0 1018.8 -- 80
2020-11-20 23:00:00 17 9 Este 17 Este 0 1018.8 -- 84
2020-11-20 22:00:00 17.1 11 Este 17 Este 0 1019 -- 82
2020-11-20 21:00:00 16.6 6 Sudeste 10 Sudeste 0 1018.7 -- 84
2020-11-20 20:00:00 16.8 6 Sudeste 13 Este 0 1018.5 -- 83
2020-11-20 19:00:00 17.4 9 Este 16 Este 0 1018.4 -- 82
2020-11-20 18:00:00 17.8 10 Sudeste 19 Sudeste 0 1018 -- 78
2020-11-20 17:00:00 18.6 12 Este 19 Este 0 1018.1 -- 75
2020-11-20 16:00:00 19 13 Este 23 Este 0 1018.2 -- 72
2020-11-20 15:00:00 19.7 12 Este 23 Este 0 1018.1 -- 65
2020-11-20 14:00:00 19.7 12 Este 23 Este 0 1018.9 -- 62
2020-11-20 13:00:00 21.1 12 Sudeste 21 Sudeste 0 1019.5 -- 57
2020-11-20 12:00:00 20.3 10 Sudeste 22 Este 0 1020.4 -- 60
2020-11-20 11:00:00 19.8 12 Sudeste 21 Sudeste 0 1020.4 -- 63
2020-11-20 10:00:00 18.6 11 Sudeste 18 Sudeste 0 1020.6 -- 72
2020-11-20 09:00:00 14.8 2 Norte 5 Norte 0 1020.9 -- 84
2020-11-20 08:00:00 13.4 4 Noroeste 10 Oeste 0 1020.8 -- 89
2020-11-20 07:00:00 14.1 9 Sudoeste 12 Sudoeste 0 1020.6 -- 85
2020-11-20 06:00:00 15 4 Nordeste 13 Sudeste 0 1020.1 -- 83
2020-11-20 05:00:00 15.7 8 Sudeste 14 Sudeste 0 1020.3 -- 84
2020-11-20 04:00:00 16.7 9 Sudeste 15 Este 0 1021 -- 81
2020-11-20 03:00:00 16.9 12 Este 18 Este 0 1021.5 -- 80
2020-11-20 02:00:00 17.4 13 Este 19 Este 0 1022 -- 79
2020-11-20 01:00:00 17.5 12 Este 18 Este 0 1022.3 -- 79
2020-11-20 00:00:00 17.7 10 Este 19 Sudeste 0 1022.3 -- 77
2020-11-19 23:00:00 17.6 10 Este 19 Este 0 1022.4 -- 79
2020-11-19 22:00:00 17.7 13 Este 22 Este 0 1022.4 -- 79
2020-11-19 21:00:00 17.8 15 Este 23 Este 0 1022.3 -- 77
2020-11-19 20:00:00 17.8 14 Este 26 Este 0 1022.3 -- 77
2020-11-19 19:00:00 17.9 15 Este 26 Este 0 1021.9 -- 77
2020-11-19 18:00:00 18.2 18 Este 27 Este 0 1021.6 -- 76
2020-11-19 17:00:00 18.6 15 Este 25 Este 0 1021.5 -- 76
2020-11-19 16:00:00 19.5 20 Este 30 Nordeste 0 1021.3 -- 73
2020-11-19 15:00:00 20 18 Este 26 Este 0 1021.4 -- 69
2020-11-19 14:00:00 20.3 16 Este 24 Este 0 1021.6 -- 69
2020-11-19 13:00:00 20 12 Este 22 Este 0 1022 -- 74
2020-11-19 12:00:00 19.2 14 Este 21 Este 0 1022.6 -- 78
2020-11-19 11:00:00 19.8 13 Este 22 Este 0 1022.6 -- 75
2020-11-19 10:00:00 19.4 15 Este 23 Este 0 1022.2 -- 75
2020-11-19 09:00:00 18.2 14 Este 21 Este 0 1021.5 -- 80
2020-11-19 08:00:00 17.1 12 Este 17 Este 0 1020.8 -- 83
2020-11-19 07:00:00 16.9 8 Este 14 Este 0 1020.4 -- 85
2020-11-19 06:00:00 16.9 7 Sudeste 15 Sudeste 0 1019.9 -- 84
2020-11-19 05:00:00 16.9 10 Este 13 Este 0 1019.7 -- 85
2020-11-19 04:00:00 17.1 5 Este 15 Este 0 1019.8 -- 85
2020-11-19 03:00:00 17.7 13 Este 17 Este 0 1019.9 -- 85
2020-11-19 02:00:00 17.4 5 Este 10 Este 0 1020.1 -- 87
2020-11-19 01:00:00 17.4 5 Este 11 Este 0 1020.3 -- 87
2020-11-19 00:00:00 17.5 7 Sudeste 11 Sudeste 0 1020.6 -- 87
2020-11-18 23:00:00 17.5 8 Sudeste 13 Sudeste 0 1020.7 -- 88
2020-11-18 22:00:00 17.4 3 Sur 9 Este 0 1020.4 -- 89
2020-11-18 21:00:00 17.6 6 Sudeste 9 Sudeste 0 1020.1 -- 88
2020-11-18 20:00:00 18.1 7 Este 12 Este 0 1020.1 -- 85
2020-11-18 19:00:00 18.6 10 Este 17 Este 0 1019.9 -- 83
2020-11-18 18:00:00 18.9 12 Este 16 Este 0 1019.5 -- 83
2020-11-18 17:00:00 19.3 9 Este 16 Este 0 1019.6 -- 79
2020-11-18 16:00:00 19.6 12 Este 18 Este 0 1019.7 -- 76
2020-11-18 15:00:00 20.2 12 Este 20 Nordeste 0 1019.7 -- 75
2020-11-18 14:00:00 20.5 13 Este 19 Nordeste 0 1020.1 -- 71
2020-11-18 13:00:00 21.6 10 Este -- -- -- 1020.7 -- 64
2020-11-18 12:00:00 -- -- -- -- -- -- -- -- --
2020-11-18 11:00:00 -- -- -- -- -- -- -- -- --
2020-11-18 10:00:00 18.8 6 Sudeste 10 Este 0 1021.7 -- 80
2020-11-18 09:00:00 17.7 2 Norte 5 Sudoeste 0 1021.2 -- 83
2020-11-18 08:00:00 16.8 4 Sudoeste 8 Sudoeste 0 1020.5 -- 85
2020-11-18 07:00:00 17.5 4 Sudoeste 6 Sudoeste 0 1020.3 -- 82
2020-11-18 06:00:00 18.3 2 Norte 3 Norte 0 1020.2 -- 80
2020-11-18 05:00:00 18.3 3 Este 12 Este 0 1020.1 -- 80
2020-11-18 04:00:00 18.4 9 Este 13 Nordeste 0 1020.3 -- 82
2020-11-18 03:00:00 18.4 7 Nordeste 10 Nordeste 0 1020.3 -- 83
2020-11-18 02:00:00 18.3 2 Oeste 5 Noroeste 0 1020.5 -- 84
2020-11-18 01:00:00 18 3 Noroeste 6 Sudoeste 0 1020.7 -- 85
2020-11-18 00:00:00 17.9 2 Oeste 13 Sudoeste 0 1020.8 -- 86
2020-11-17 23:00:00 17.7 10 Sudoeste 13 Sudoeste 0 1020.8 -- 86
2020-11-17 22:00:00 17.8 6 Sudoeste 17 Sudoeste 0 1020.7 -- 85
2020-11-17 21:00:00 18.5 8 Oeste 14 Oeste 0 1020.4 -- 86
2020-11-17 20:00:00 18.5 5 Oeste 9 Norte 0 1020.1 -- 88
2020-11-17 19:00:00 18.9 4 Noroeste 10 Norte 0 1019.7 -- 87
2020-11-17 18:00:00 19.2 6 Norte 12 Norte 0 1019.1 -- 84
2020-11-17 17:00:00 19.7 9 Norte 17 Norte 0 1019.2 -- 83
2020-11-17 16:00:00 20.1 14 Norte 24 Norte 0 1019.1 -- 82
2020-11-17 15:00:00 20.9 20 Nordeste 32 Norte 0 1018.8 -- 77
2020-11-17 14:00:00 21.3 22 Nordeste 30 Norte 0 1018.7 -- 76
2020-11-17 13:00:00 21.5 22 Nordeste 27 Nordeste 0 1019.2 -- 77
2020-11-17 12:00:00 21.8 14 Norte 24 Nordeste 0 1019.9 -- 73
2020-11-17 11:00:00 20.7 15 Norte 24 Noroeste 0 1020.1 -- 77
2020-11-17 10:00:00 20.4 12 Noroeste 19 Noroeste 0 1019.7 -- 77
2020-11-17 09:00:00 18.7 11 Norte 16 Sudoeste 0 1018.8 -- 82
2020-11-17 08:00:00 17.8 4 Noroeste 20 Sudoeste 0 1018 -- 85
2020-11-17 07:00:00 18.3 12 Oeste 21 Oeste 0 1017.7 -- 84
2020-11-17 06:00:00 19.4 6 Noroeste 31 Oeste 0 1017 -- 65
2020-11-17 05:00:00 20.3 19 Oeste 31 Oeste 0 1016.4 -- 59
2020-11-17 04:00:00 20.3 19 Oeste 29 Oeste 0 1016.6 -- 57
2020-11-17 03:00:00 20.7 12 Oeste 27 Oeste 0 1016.9 -- 54
2020-11-17 02:00:00 21.2 12 Oeste 26 Oeste 0 1016.9 -- 52
2020-11-17 01:00:00 21.7 15 Oeste 28 Oeste 0 1017.3 -- 49
2020-11-17 00:00:00 22 14 Oeste 26 Oeste 0 1017.8 -- 48
2020-11-16 23:00:00 22.3 14 Oeste 28 Oeste 0 1017.5 -- 47
2020-11-16 22:00:00 22.6 15 Oeste 29 Oeste 0 1017.2 -- 47
2020-11-16 21:00:00 22.7 18 Oeste 29 Oeste 0 1017 -- 47
2020-11-16 20:00:00 23 14 Oeste 36 Oeste 0 1016.6 -- 46
2020-11-16 19:00:00 23.6 17 Oeste 33 Oeste 0 1015.9 -- 43
2020-11-16 18:00:00 24.2 17 Oeste 32 Oeste 0 1015.3 -- 41
2020-11-16 17:00:00 26 18 Oeste 33 Oeste 0 1015.1 -- 37
2020-11-16 16:00:00 26.1 19 Oeste 32 Sudoeste 0 1015.2 -- 37
2020-11-16 15:00:00 26.6 14 Oeste 35 Oeste 0 1015.7 -- 37
2020-11-16 14:00:00 28 13 Oeste 28 Oeste 0 1015.9 -- 33
2020-11-16 13:00:00 27.7 9 Oeste 28 Oeste 0 1016.5 -- 33
2020-11-16 12:00:00 28 13 Oeste 26 Oeste 0 1016.6 -- 32
2020-11-16 11:00:00 25.8 7 Oeste 19 Oeste 0 1016.6 -- 36
2020-11-16 10:00:00 21.9 4 Sur 7 Sur 0 1016.5 -- 59
2020-11-16 09:00:00 19 5 Noroeste 19 Oeste 0 1016 -- 74
2020-11-16 08:00:00 17.7 6 Noroeste 18 Oeste 0 1015.7 -- 84
2020-11-16 07:00:00 18 9 Oeste 24 Oeste 0 1015.5 -- 83
2020-11-16 06:00:00 18.6 6 Oeste 23 Noroeste 0 1015.4 -- 76
2020-11-16 05:00:00 19.2 4 Oeste 13 Sudoeste 0 1014.8 -- 58
2020-11-16 04:00:00 19 3 Oeste 12 Sudoeste 0 1015.2 -- 60
2020-11-16 03:00:00 18.1 5 Oeste 10 Sudoeste 0 1015.6 -- 66
2020-11-16 02:00:00 17.6 8 Sudoeste 11 Sudoeste 0 1016 -- 70
2020-11-16 01:00:00 17.8 3 Oeste 8 Sudoeste 0 1016.5 -- 73
2020-11-16 00:00:00 17.6 5 Sudoeste 8 Sudoeste 0 1017 -- 78
2020-11-15 23:00:00 17.3 6 Sudoeste 9 Oeste 0 1017.2 -- 82
2020-11-15 22:00:00 17.9 5 Oeste 7 Sudoeste 0 1017.4 -- 85
2020-11-15 21:00:00 18.4 6 Oeste 8 Sudoeste 0 1017.3 -- 82
2020-11-15 20:00:00 18.8 3 Oeste 4 Oeste 0 1016.8 -- 81
2020-11-15 19:00:00 19.6 0 Calma 6 Este 0 1016.2 -- 81
2020-11-15 18:00:00 20.5 4 Sudeste 12 Este 0 1015.8 -- 76
2020-11-15 17:00:00 21.2 8 Este 12 Este 0 1015.8 -- 78
2020-11-15 16:00:00 21.8 7 Este 13 Este 0 1015.9 -- 74
2020-11-15 15:00:00 22 9 Nordeste 13 Este 0 1015.8 -- 65
2020-11-15 14:00:00 21.9 8 Este 15 Este 0 1016 -- 70
2020-11-15 13:00:00 23 9 Nordeste 14 Nordeste 0 1016.2 -- 62
2020-11-15 12:00:00 23.1 8 Este 14 Este 0 1016.7 -- 59
2020-11-15 11:00:00 21.6 5 Este 11 Este 0 1017 -- 63
2020-11-15 10:00:00 20 3 Norte 5 Norte 0 1017 -- 67
2020-11-15 09:00:00 16.6 4 Noroeste 8 Norte 0 1016.7 -- 81
2020-11-15 08:00:00 15.3 3 Sudoeste 6 Sudoeste 0 1016.3 -- 84
2020-11-15 07:00:00 15.5 5 Oeste 8 Sudoeste 0 1015.8 -- 82
2020-11-15 06:00:00 16 6 Oeste 8 Oeste 0 1015.6 -- 81
2020-11-15 05:00:00 15.6 4 Oeste 6 Sudoeste 0 1015.6 -- 83
2020-11-15 04:00:00 15.6 2 Este 9 Noroeste 0 1015.8 -- 82
2020-11-15 03:00:00 15.6 4 Oeste 6 Sudoeste 0 1015.7 -- 84
2020-11-15 02:00:00 15.6 3 Noroeste 6 Oeste 0 1016 -- 87
2020-11-15 01:00:00 15.9 5 Sudoeste 6 Oeste 0 1016.4 -- 83
2020-11-15 00:00:00 16.2 5 Oeste 7 Sudoeste 0 1016.8 -- 83
2020-11-14 23:00:00 16.6 4 Sudoeste 6 Oeste 0 1017.1 -- 85
2020-11-14 22:00:00 17.2 5 Sudoeste 8 Oeste 0 1016.7 -- 86
2020-11-14 21:00:00 17.7 3 Noroeste 13 Oeste 0 1016.4 -- 83
2020-11-14 20:00:00 18.4 3 Oeste 13 Oeste 0 1016.1 -- 85
2020-11-14 19:00:00 18.9 5 Noroeste 14 Oeste 0 1015.5 -- 85
2020-11-14 18:00:00 19.3 5 Noroeste 15 Noroeste 0 1014.9 -- 81
2020-11-14 17:00:00 20 10 Noroeste 18 Noroeste 0 1014.5 -- 78
2020-11-14 16:00:00 20.3 7 Noroeste 18 Noroeste 0 1014.6 -- 78
2020-11-14 15:00:00 20.6 13 Nordeste 17 Nordeste 0 1014.4 -- 75
2020-11-14 14:00:00 20.7 8 Este 14 Este 0 1014.6 -- 79
2020-11-14 13:00:00 20.7 8 Este 15 Este 0 1015.1 -- 76
2020-11-14 12:00:00 21.4 9 Este 13 Nordeste 0 1015.6 -- 73
2020-11-14 11:00:00 20.1 7 Este 11 Este 0 1015.6 -- 83
2020-11-14 10:00:00 19.1 5 Este 8 Nordeste 0 1015.4 -- 85
2020-11-14 09:00:00 18.2 4 Noroeste 6 Sudoeste 0 1015 -- 92
2020-11-14 08:00:00 18 5 Sudeste 10 Sudeste 0 1014.4 -- 92
2020-11-14 07:00:00 17.8 7 Sudeste 10 Sudeste 0 1014 -- 94
2020-11-14 06:00:00 17.8 3 Nordeste 6 Norte 0 1013.9 -- 93
2020-11-14 05:00:00 18.1 4 Nordeste 6 Norte 0 1013.9 -- 92
2020-11-14 04:00:00 18.1 3 Sur 3 Sur 0 1013.9 -- 91
2020-11-14 03:00:00 18 3 Oeste 5 Sudoeste 0 1014.3 -- 92
2020-11-14 02:00:00 18 0 Calma 5 Noroeste 0 1014.3 -- 90
2020-11-14 01:00:00 18.2 4 Noroeste 6 Norte 0 1014.7 -- 90
2020-11-14 00:00:00 17.9 2 Sudoeste 4 Sudoeste 0 1014.9 -- 86
2020-11-13 23:00:00 18.4 2 Norte 4 Sudoeste 0 1015.1 -- 88
2020-11-13 22:00:00 18.4 0 Calma 4 Sudeste 0 1014.9 -- 89
2020-11-13 21:00:00 18.5 4 Sudeste 8 Sudeste 0 1014.6 -- 89
2020-11-13 20:00:00 18.8 5 Sudeste 10 Sudeste 0 1014.3 -- 88
2020-11-13 19:00:00 18.9 7 Este 12 Sudeste 0 1013.7 -- 87
2020-11-13 18:00:00 19.2 8 Este 14 Este 0 1013.5 -- 87
2020-11-13 17:00:00 19.2 8 Este 14 Nordeste 0 1013.3 -- 85
2020-11-13 16:00:00 19.6 9 Nordeste 15 Nordeste 0 1013.2 -- 84
2020-11-13 15:00:00 20.2 10 Nordeste 15 Nordeste 0 1013.2 -- 78
2020-11-13 14:00:00 20.5 10 Nordeste 14 Este 0 1013.6 -- 73
2020-11-13 13:00:00 20.3 7 Este 10 Este 0 1014.3 -- 75
2020-11-13 12:00:00 20 5 Este 10 Nordeste 0 1015 -- 78
2020-11-13 11:00:00 19.5 5 Sudeste 9 Sudeste 0 1014.9 -- 79
2020-11-13 10:00:00 18.3 3 Nordeste 10 Este 0 1014.7 -- 84
2020-11-13 09:00:00 16.9 3 Oeste 4 Sudoeste 0 1014.1 -- 88
2020-11-13 08:00:00 16.7 4 Oeste 6 Oeste 0 1013.6 -- 89
2020-11-13 07:00:00 16.4 4 Oeste 5 Oeste 0 1012.9 -- 89
2020-11-13 06:00:00 16.5 4 Noroeste 6 Oeste 0 1012.8 -- 89
2020-11-13 05:00:00 16.7 3 Oeste 5 Noroeste 0 1012.7 -- 90
2020-11-13 04:00:00 16.8 2 Noroeste 5 Noroeste 0 1012.7 -- 90
2020-11-13 03:00:00 16.8 4 Oeste 6 Sudoeste 0 1013.1 -- 89
2020-11-13 02:00:00 16.8 2 Oeste 6 Oeste 0 1013.1 -- 88
2020-11-13 01:00:00 16.7 3 Oeste 8 Sudoeste 0 1013.3 -- 86
2020-11-13 00:00:00 17.1 6 Sudoeste 8 Sudoeste 0 1013.3 -- 85
2020-11-12 23:00:00 18.2 4 Sudeste 9 Este 0 1013.5 -- 85
2020-11-12 22:00:00 18.4 6 Sudeste 10 Sudeste 0 1013.3 -- 84
2020-11-12 21:00:00 18.5 7 Este 12 Este 0 1013.2 -- 82
2020-11-12 20:00:00 18.6 7 Este 15 Este 0 1013.2 -- 84
2020-11-12 19:00:00 18.7 10 Este 14 Este 0 1012.9 -- 84
2020-11-12 18:00:00 19 11 Este 17 Este 0 1012.5 -- 83
2020-11-12 17:00:00 19.1 9 Este 14 Este 0 1012.4 -- 83
2020-11-12 16:00:00 19.4 11 Este 17 Nordeste 0 1012.2 -- 82
2020-11-12 15:00:00 19.9 10 Este 20 Nordeste 0 1012.4 -- 78
2020-11-12 14:00:00 20.3 9 Este 18 Este 0 1013 -- 76
2020-11-12 13:00:00 20.1 10 Este 22 Este 0 1013.6 -- 77
2020-11-12 12:00:00 20.6 10 Este 19 Sudeste 0 1014.8 -- 75
2020-11-12 11:00:00 20.5 10 Sudeste 21 Sudeste 0 1014.9 -- 74
2020-11-12 10:00:00 19.5 11 Sudeste 20 Sudeste 0 1014.7 -- 81
2020-11-12 09:00:00 18.8 14 Este 21 Este 0 1014.5 -- 85
2020-11-12 08:00:00 18.5 10 Este 18 Este 0 1014.3 -- 85
2020-11-12 07:00:00 18.6 8 Este 19 Este 0 1013.9 -- 86
2020-11-12 06:00:00 18.5 14 Este 23 Este 0 1013.8 -- 84
2020-11-12 05:00:00 18.7 11 Este 19 Este 0 1014.1 -- 85
2020-11-12 04:00:00 18.5 12 Este 22 Este 0 1014.5 -- 87
2020-11-12 03:00:00 18.5 16 Este 23 Nordeste 0 1015 -- 85
2020-11-12 02:00:00 18.5 14 Este 24 Este 0 1015.5 -- 85
2020-11-12 01:00:00 18.7 17 Este 23 Este 0 1015.9 -- 86
2020-11-12 00:00:00 18.7 15 Este 23 Este 0 1016.2 -- 86
2020-11-11 23:00:00 18.7 13 Este 22 Este 0 1016.3 -- 87
2020-11-11 22:00:00 18.5 15 Este 24 Este 0 1016 -- 86
2020-11-11 21:00:00 18.8 15 Este 22 Este 0 1015.8 -- 86
2020-11-11 20:00:00 18.8 14 Este 24 Este 0 1015.8 -- 86
2020-11-11 19:00:00 18.7 17 Este 25 Este 0 1015.2 -- 83
2020-11-11 18:00:00 18.9 18 Este 25 Este 0 1014.9 -- 82
2020-11-11 17:00:00 19.1 18 Este 26 Este 0 1014.7 -- 82
2020-11-11 16:00:00 19.1 16 Este 27 Este 0 1014.9 -- 82
2020-11-11 15:00:00 19.6 17 Este 89 Este 0 1014.7 -- 80
2020-11-11 14:00:00 20 21 Este 28 Este 0 1015.2 -- 76
2020-11-11 13:00:00 20.2 16 Este 27 Este 0 1016.1 -- 75
2020-11-11 12:00:00 20.2 15 Sudeste 25 Sur 0 1016.9 -- 73
2020-11-11 11:00:00 20.4 14 Sudeste 23 Sudeste 0 1017.4 -- 73
2020-11-11 10:00:00 19.1 15 Sudeste 24 Sudeste 0 1017.5 -- 76
2020-11-11 09:00:00 18.1 12 Sudeste 22 Este 0 1017.5 -- 83
2020-11-11 08:00:00 17.7 14 Este 22 Este 0 1017.5 -- 86
2020-11-11 07:00:00 17.3 9 Este 13 Este 0 1017.5 -- 87
2020-11-11 06:00:00 16.9 6 Sudeste 14 Este 0 1017.3 -- 88
2020-11-11 05:00:00 16.6 9 Sudeste 15 Este 0 1017 -- 87
2020-11-11 04:00:00 16.9 10 Este 14 Este 0 1017.4 -- 87
2020-11-11 03:00:00 16.7 7 Este 14 Sudeste 0 1017.8 -- 87
2020-11-11 02:00:00 17.2 9 Este 17 Este 0 1018.4 -- 82
2020-11-11 01:00:00 17.5 11 Este 20 Este 0 1018.8 -- 82
2020-11-11 00:00:00 17.6 11 Este 16 Este 0 1018.8 -- 83
2020-11-10 23:00:00 17.7 10 Este 18 Este 0 1018.8 -- 83
2020-11-10 22:00:00 17.8 9 Este 17 Este 0 1018.6 -- 83
2020-11-10 21:00:00 18 9 Este 19 Sudeste 0 1018.2 -- 83
2020-11-10 20:00:00 18.4 11 Este 17 Este 0 1018.1 -- 83
2020-11-10 19:00:00 18.4 5 Nordeste 10 Este 0 1017.8 -- 84
2020-11-10 18:00:00 18.6 7 Nordeste 13 Este 0 1017.3 -- 83
2020-11-10 17:00:00 19.1 9 Nordeste 14 Este 0 1017 -- 80
2020-11-10 16:00:00 19.9 8 Este 15 Este 0 1016.6 -- 72
2020-11-10 15:00:00 20 12 Este 18 Este 0 1016.7 -- 71
2020-11-10 14:00:00 20.5 13 Este 18 Nordeste 0 1017.1 -- 67
2020-11-10 13:00:00 20.2 10 Este 19 Nordeste 0 1017.8 -- 67
2020-11-10 12:00:00 21.1 9 Sudeste 19 Sudeste 0 1018.4 -- 62
2020-11-10 11:00:00 20.5 10 Este 16 Este 0 1018.7 -- 70
2020-11-10 10:00:00 19.5 6 Este 10 Este 0 1018.5 -- 74
2020-11-10 09:00:00 15.5 3 Noroeste 7 Sudoeste 0 1018.2 -- 73
2020-11-10 08:00:00 14 5 Oeste 9 Sudoeste 0 1017.5 -- 76
2020-11-10 07:00:00 13.7 4 Oeste 9 Noroeste 0 1016.9 -- 78
2020-11-10 06:00:00 13.8 5 Sudoeste 9 Oeste 0 1016.6 -- 79
2020-11-10 05:00:00 14.1 7 Sudoeste 9 Sudoeste 0 1016.2 -- 76
2020-11-10 04:00:00 13.8 5 Oeste 8 Sudoeste 0 1016.3 -- 77
2020-11-10 03:00:00 14 5 Oeste 8 Sudoeste 0 1016.6 -- 77
2020-11-10 02:00:00 14.9 5 Oeste 8 Noroeste 0 1016.7 -- 75
2020-11-10 01:00:00 14.9 5 Sudoeste 7 Sudoeste 0 1017.1 -- 73
2020-11-10 00:00:00 15.2 0 Calma 5 Sudoeste 0 1017.5 -- 74
2020-11-09 23:00:00 15.9 3 Oeste 9 Sudoeste 0 1017.6 -- 72
2020-11-09 22:00:00 16.4 0 Calma 6 Noroeste 0 1017.4 -- 68
2020-11-09 21:00:00 16.9 3 Oeste 9 Noroeste 0 1017 -- 64
2020-11-09 20:00:00 17.5 4 Oeste 12 Noroeste 0 1017 -- 78
2020-11-09 19:00:00 18 9 Noroeste 15 Noroeste 0 1016.6 -- 81
2020-11-09 18:00:00 18.6 6 Oeste 21 Oeste 0 1016.3 -- 77
2020-11-09 17:00:00 19.5 8 Noroeste 19 Noroeste 0 1015.9 -- 74
2020-11-09 16:00:00 21.3 6 Oeste 17 Norte 0 1015.8 -- 67
2020-11-09 15:00:00 20.5 11 Nordeste 17 Nordeste 0 1015.7 -- 73
2020-11-09 14:00:00 20.5 10 Nordeste 16 Nordeste 0 1015.9 -- 70
2020-11-09 13:00:00 20.4 10 Nordeste 15 Este 0 1016.2 -- 72
2020-11-09 12:00:00 20.2 10 Este 15 Este 0 1016.9 -- 74
2020-11-09 11:00:00 19.6 6 Nordeste 11 Este 0 1017 -- 76
2020-11-09 10:00:00 18.6 3 Sudeste 8 Sudeste 0 1017 -- 82
2020-11-09 09:00:00 15.5 4 Norte 9 Sudoeste 0 1016.5 -- 90
2020-11-09 08:00:00 14.8 3 Oeste 6 Sudoeste 0 1015.9 -- 87
2020-11-09 07:00:00 15 3 Oeste 10 Noroeste 0 1015.5 -- 88
2020-11-09 06:00:00 14.6 8 Noroeste 11 Oeste 0 1015.3 -- 90
2020-11-09 05:00:00 14.3 6 Noroeste 9 Norte 0 1015.2 -- 88
2020-11-09 04:00:00 14.3 6 Norte 8 Norte 0 1015.1 -- 85
2020-11-09 03:00:00 14.6 3 Oeste 5 Oeste 0 1015.2 -- 83
2020-11-09 02:00:00 14.9 4 Oeste 7 Sudoeste 0 1015.3 -- 82
2020-11-09 01:00:00 15.1 5 Oeste 10 Sudoeste 0 1015.6 -- 80
2020-11-09 00:00:00 15.7 6 Oeste 9 Sudoeste 0 1015.7 -- 85
2020-11-08 23:00:00 16 3 Oeste 8 Noroeste 0 1015.7 -- 85
2020-11-08 22:00:00 16.6 4 Sudoeste 7 Oeste 0 1015.9 -- 82
2020-11-08 21:00:00 17.4 5 Sudoeste 8 Sudoeste 0 1016 -- 85
2020-11-08 20:00:00 18.2 3 Sur 7 Nordeste 0 1015.7 -- 84
2020-11-08 19:00:00 18.6 5 Este 8 Nordeste 0 1015.2 -- 85
2020-11-08 18:00:00 18.9 5 Nordeste 14 Nordeste 0 1015 -- 82
2020-11-08 17:00:00 19.8 9 Nordeste 16 Nordeste 0 1014.8 -- 80
2020-11-08 16:00:00 20.1 10 Este 18 Este 0 1014.6 -- 79
2020-11-08 15:00:00 20.6 11 Este 20 Nordeste 0 1014.8 -- 73
2020-11-08 14:00:00 20.8 13 Nordeste 21 Este 0 1015.2 -- 65
2020-11-08 13:00:00 20.7 15 Nordeste 19 Este 0 1015.9 -- 66
2020-11-08 12:00:00 20.7 14 Nordeste 19 Nordeste 0 1016.8 -- 70
2020-11-08 11:00:00 21.3 6 Este 10 Este 0 1017.2 -- 58
2020-11-08 10:00:00 19 7 Nordeste 9 Nordeste 0 1017 -- 69
2020-11-08 09:00:00 17.1 3 Norte 6 Norte 0 1016.7 -- 75
2020-11-08 08:00:00 15.4 3 Noroeste 6 Noroeste 0 1016.1 -- 79
2020-11-08 07:00:00 15.5 4 Norte 6 Norte 0 1016 -- 77
2020-11-08 06:00:00 15.9 4 Norte 8 Norte 0 1015.9 -- 75
2020-11-08 05:00:00 15.6 2 Norte 6 Norte 0 1016.1 -- 77
2020-11-08 04:00:00 15.8 5 Norte 8 Norte 0 1016 -- 76
2020-11-08 03:00:00 15.9 5 Noroeste 6 Noroeste 0 1016.4 -- 79
2020-11-08 02:00:00 15.8 3 Noroeste 9 Noroeste 0 1016.7 -- 80
2020-11-08 01:00:00 16.1 6 Noroeste 8 Noroeste 0 1017.2 -- 79
2020-11-08 00:00:00 16.4 3 Oeste 7 Noroeste 0 1017.6 -- 78
2020-11-07 23:00:00 16.5 3 Nordeste 6 Sudeste 0 1017.8 -- 80
2020-11-07 22:00:00 17.2 3 Sur 6 Norte 0 1018.1 -- 80
2020-11-07 21:00:00 17.6 4 Sur 8 Sudoeste 0 1018 -- 77
2020-11-07 20:00:00 18.3 3 Sur 5 Sudoeste 0 1017.7 -- 70
2020-11-07 19:00:00 19.1 3 Oeste 13 Noroeste 0 1017.2 -- 69
2020-11-07 18:00:00 19.8 5 Noroeste 19 Noroeste 0 1016.6 -- 66
2020-11-07 17:00:00 21.1 7 Noroeste 22 Noroeste 0 1016.2 -- 60
2020-11-07 16:00:00 21.5 14 Noroeste 25 Noroeste 0 1015.7 -- 59
2020-11-07 15:00:00 21.6 18 Norte 35 Nordeste 0 1015.4 -- 63
2020-11-07 14:00:00 22.6 24 Norte 36 Norte 0 1015.4 -- 58
2020-11-07 13:00:00 23.9 11 Noroeste 23 Noroeste 0 1015.7 -- 47
2020-11-07 12:00:00 23.9 7 Noroeste 23 Norte 0 1016 -- 44
2020-11-07 11:00:00 24 8 Oeste 23 Oeste 0 1015.6 -- 42
2020-11-07 10:00:00 21.5 3 Noroeste 17 Norte 0 1015 -- 66
2020-11-07 09:00:00 19 8 Sudoeste 18 Noroeste 0 1013.9 -- 78
2020-11-07 08:00:00 18.5 12 Sudeste 29 Sudeste 0 1012.9 -- 80
2020-11-07 07:00:00 18.5 15 Sudeste 26 Este 0 1011.9 -- 75
2020-11-07 06:00:00 18.5 9 Sudeste 26 Sur 0.2 1010.9 -- 76
2020-11-07 05:00:00 18.4 11 Este 23 Sudeste 1 1010.3 -- 81
2020-11-07 04:00:00 18.6 9 Sudoeste 25 Oeste 0 1010.4 -- 76
2020-11-07 03:00:00 19.2 13 Oeste 30 Oeste 0 1010.2 -- 74
2020-11-07 02:00:00 19.8 14 Oeste 40 Sudoeste 0 1010 -- 73
2020-11-07 01:00:00 20.6 19 Oeste 37 Oeste 0 1009.9 -- 70
2020-11-07 00:00:00 22.1 15 Oeste 34 Oeste 0 1009.8 -- 55
2020-11-06 23:00:00 23.8 20 Oeste 36 Sudoeste 0 1009.2 -- 43
2020-11-06 22:00:00 24.5 23 Sudoeste 38 Oeste 0 1007.3 -- 38
2020-11-06 21:00:00 25.2 26 Sudoeste 37 Sudoeste 0 1006.3 -- 35
2020-11-06 20:00:00 25.3 27 Sudoeste 48 Sudoeste 0 1005.6 -- 38
2020-11-06 19:00:00 22.5 28 Sudoeste 50 Oeste 0 1004.4 -- 57
2020-11-06 18:00:00 22.4 28 Oeste 60 Sur 0 1003.5 -- 67
2020-11-06 17:00:00 33.6 33 Sur 59 Sur 0 1002.6 -- 16
2020-11-06 16:00:00 33.6 29 Sur 57 Sur 0 1002.4 -- 15
2020-11-06 15:00:00 33 29 Sur 56 Sudoeste 0 1002.7 -- 15
2020-11-06 14:00:00 31.4 18 Sur 46 Sur 0 1003.7 -- 16
2020-11-06 13:00:00 31.1 33 Sur 63 Sur 0 1005 -- 14
2020-11-06 12:00:00 30.8 39 Sur 67 Sur 0 1005.2 -- 14
2020-11-06 11:00:00 29.5 38 Sur 62 Sur 0 1005.2 -0.5 15
2020-11-06 10:00:00 28.8 32 Sur 54 Sur 0 1005.8 -- 17
2020-11-06 09:00:00 27.2 25 Sur 49 Sur 0 1005.8 -- 19
2020-11-06 08:00:00 27.1 28 Sur 42 Sur 0 1005.7 -- 19
2020-11-06 07:00:00 26.9 26 Sur 40 Sur 0 1005.6 -- 21
2020-11-06 06:00:00 19.8 6 Noroeste 14 Norte 0 1005.6 -- 71
2020-11-06 05:00:00 18.9 6 Sur 14 Sudoeste 0 1005.8 -- 93
2020-11-06 04:00:00 18.5 9 Sudeste 16 Sudeste 0 1005.8 -- 92
2020-11-06 03:00:00 18.9 8 Sudeste 13 Sudeste 0 1006.2 -- 92
2020-11-06 02:00:00 19.1 5 Sudeste 10 Nordeste 0 1006.7 -- 91
2020-11-06 01:00:00 19.3 7 Nordeste 12 Nordeste 0 1007.2 -- 90
2020-11-06 00:00:00 19.7 2 Este 12 Nordeste 0 1007.5 -- 86
2020-11-05 23:00:00 19.9 8 Norte 10 Norte 0 1007.9 -- 86
2020-11-05 22:00:00 19.9 6 Este 10 Sudeste 0 1007.9 -- 82
2020-11-05 21:00:00 20 8 Sudeste 12 Sudeste 0 1008.1 -- 79
2020-11-05 20:00:00 20.3 5 Este 9 Sudeste 0 1008 -- 78
2020-11-05 19:00:00 20.7 4 Este 15 Nordeste 0 1007.6 -- 76
2020-11-05 18:00:00 21.5 8 Nordeste 16 Nordeste 0 1006.9 -- 70
2020-11-05 17:00:00 22.4 11 Nordeste 17 Nordeste 0 1006.3 -- 63
2020-11-05 16:00:00 23.5 11 Nordeste 18 Norte 0 1006.2 -- 53
2020-11-05 15:00:00 23.8 8 Este 20 Nordeste 0 1006 -- 50
2020-11-05 14:00:00 23.4 9 Este 25 Este 0 1006.6 -- 54
2020-11-05 13:00:00 22.1 18 Este 27 Nordeste 0 1006.9 -- 66
2020-11-05 12:00:00 21.8 17 Sudeste 25 Sudeste 0 1007.4 -- 62
2020-11-05 11:00:00 21.4 10 Sudeste 26 Sudeste 0 1007.6 -- 74
2020-11-05 10:00:00 18.8 15 Sudeste 25 Sur 0 1008.8 -- 86
2020-11-05 09:00:00 18.3 5 Sudeste 10 Sudeste 0 1007.9 -- 90
2020-11-05 08:00:00 17.6 4 Sudoeste 5 Sudoeste 0 1007.3 -- 90
2020-11-05 07:00:00 17.7 0 Calma 6 Sudoeste 0 1007 -- 89
2020-11-05 06:00:00 17.9 3 Sudoeste 8 Este 0 1006.8 -- 87
2020-11-05 05:00:00 18.2 3 Este 11 Este 0 1006.8 -- 88
2020-11-05 04:00:00 18.6 5 Sudeste 17 Sudeste 0 1007.1 -- 86
2020-11-05 03:00:00 18.3 7 Sudeste 14 Este 0 1007.6 -- 85
2020-11-05 02:00:00 17.8 8 Sudeste 14 Sudeste 0 1007 -- 85
2020-11-05 01:00:00 17.6 4 Sudeste 9 Noroeste 0 1007.6 -- 82
2020-11-05 00:00:00 18.5 4 Sudoeste 15 Sudoeste 0 1008.7 -- 79
2020-11-04 23:00:00 18.5 2 Sur 7 Sur 0 1009 -- 82
2020-11-04 22:00:00 18.5 4 Sudeste 13 Este 0 1008.6 -- 82
2020-11-04 21:00:00 18.6 9 Este 13 Este 0 1007.8 -- 80
2020-11-04 20:00:00 18.4 8 Este 16 Este 0 1007.8 -- 81
2020-11-04 19:00:00 18.5 11 Este 18 Este 0 1007.4 -- 79
2020-11-04 18:00:00 18.9 13 Este 18 Este 0 1006.9 -- 76
2020-11-04 17:00:00 19.3 14 Nordeste 21 Nordeste 0 1007.1 -- 69
2020-11-04 16:00:00 19.7 13 Nordeste 21 Este 0 1007.4 -- 66
2020-11-04 15:00:00 20.1 14 Nordeste 21 Este 0 1007.8 -- 61
2020-11-04 14:00:00 20.6 13 Nordeste 21 Este 0 1008.7 -- 57
2020-11-04 13:00:00 21.8 10 Este 18 Sudeste 0 1009.6 -- 55
2020-11-04 12:00:00 20.6 8 Este 15 Este 0 1010.8 -- 60
2020-11-04 11:00:00 20.3 4 Norte 12 Noroeste 0 1011.6 -0.3 61
2020-11-04 10:00:00 19.2 5 Noroeste 14 Noroeste 0 1011.8 -- 64
2020-11-04 09:00:00 18 4 Noroeste 10 Sudoeste 0 1012.1 -- 70
2020-11-04 08:00:00 16.6 8 Sudoeste 14 Sudoeste 0 1011.9 -- 76
2020-11-04 07:00:00 16.3 7 Oeste 12 Oeste 0 1012.1 -- 76
2020-11-04 06:00:00 16.9 3 Oeste 9 Norte 0 1012.4 -- 76
2020-11-04 05:00:00 17.4 3 Oeste 6 Sudeste 0 1012.9 -- 74
2020-11-04 04:00:00 17.5 5 Sudeste 8 Este 0 1013.4 -- 74
2020-11-04 03:00:00 18 7 Este 12 Este 0 1014 -- 69
2020-11-04 02:00:00 18.1 4 Este 10 Este 0 1014.8 -- 72
2020-11-04 01:00:00 18.2 12 Este 18 Este 0 1015.5 -- 71
2020-11-04 00:00:00 18.4 9 Este 17 Nordeste 0 1016.2 -- 73
2020-11-03 23:00:00 18.4 8 Este 12 Este 0 1016.5 -- 76
2020-11-03 22:00:00 18.6 7 Este 15 Este 0 1016.5 -- 74
2020-11-03 21:00:00 18.2 5 Sudeste 10 Este 0 1016.3 -- 76
2020-11-03 20:00:00 18.6 8 Este 12 Nordeste 0 1016.1 -- 77
2020-11-03 19:00:00 18.6 7 Este 18 Nordeste 0 1015.7 -- 78
2020-11-03 18:00:00 19.1 10 Este 17 Nordeste 0 1015.3 -- 78
2020-11-03 17:00:00 19.3 10 Nordeste 15 Nordeste 0 1015.1 -- 76
2020-11-03 16:00:00 19.7 10 Nordeste 19 Nordeste 0 1015.1 -- 76
2020-11-03 15:00:00 19.2 13 Nordeste 19 Nordeste 0 1015.2 -- 76
2020-11-03 14:00:00 19.9 14 Nordeste 20 Nordeste 0 1015.4 -- 72
2020-11-03 13:00:00 19.9 12 Este 18 Este 0 1016.1 -- 71
2020-11-03 12:00:00 19.6 12 Nordeste 17 Este 0 1016.7 -- 71
2020-11-03 11:00:00 19.9 7 Este 16 Este 0 1017 -- 70
2020-11-03 10:00:00 18.5 7 Sudeste 19 Sur 0 1016.9 -- 75
2020-11-03 09:00:00 17 9 Sudeste 16 Sudeste 0 1016.5 -- 83
2020-11-03 08:00:00 15.3 3 Sudeste 6 Este 0 1016 -- 88
2020-11-03 07:00:00 15.5 2 Este 9 Sur 0 1015.7 -- 89
2020-11-03 06:00:00 14.5 2 Noroeste 7 Sudeste 0 1015.6 -- 90
2020-11-03 05:00:00 15 5 Sudoeste 8 Noroeste 0 1015.5 -- 91
2020-11-03 04:00:00 14.8 5 Noroeste 9 Noroeste 0 1015.5 -- 93
2020-11-03 03:00:00 14.3 3 Oeste 7 Oeste 0 1015.5 -- 92
2020-11-03 02:00:00 14.6 6 Sudoeste 8 Sudoeste 0 1015.5 -- 91
2020-11-03 01:00:00 14.9 3 Oeste 8 Sudoeste 0 1015.8 -- 90
2020-11-03 00:00:00 15.7 3 Noroeste 9 Sudoeste 0 1016.1 -- 89
2020-11-02 23:00:00 16.7 6 Sudoeste 9 Oeste 0 1016.3 -- 86
2020-11-02 22:00:00 17.5 4 Sudoeste 9 Oeste 0 1016.4 -- 84
2020-11-02 21:00:00 17.6 6 Sudoeste 9 Sudoeste 0 1016.2 -- 86
2020-11-02 20:00:00 17.8 5 Sudeste 11 Este 0 1015.8 -- 85
2020-11-02 19:00:00 19.8 6 Este 10 Este 0 1015.2 -- 76
2020-11-02 18:00:00 19.5 8 Este 13 Este 0 1014.9 -- 77
2020-11-02 17:00:00 20.5 8 Este 17 Este 0 1014.9 -- 73
2020-11-02 16:00:00 20.7 10 Este 15 Este 0 1015.1 -- 72
2020-11-02 15:00:00 21.8 8 Este 15 Nordeste 0 1015.1 -- 67
2020-11-02 14:00:00 20.8 9 Nordeste 18 Este 0 1015.7 -- 71
2020-11-02 13:00:00 21 9 Este 17 Nordeste 0 1016.4 -- 70
2020-11-02 12:00:00 20.9 8 Este 16 Este 0 1017 -- 70
2020-11-02 11:00:00 19.9 9 Este 14 Nordeste 0 1017.1 -- 74
2020-11-02 10:00:00 21 5 Sudeste 13 Sudeste 0 1016.9 -- 71
2020-11-02 09:00:00 19.7 3 Sudeste 10 Sudoeste 0 1016.7 -- 75
2020-11-02 08:00:00 15.6 5 Sudoeste 9 Sudoeste 0 1016.2 -- 94
2020-11-02 07:00:00 15.3 3 Sudoeste 8 Sudeste 0 1015.9 -- 93
2020-11-02 06:00:00 15.6 5 Sudeste 12 Sur 0 1015.6 -- 94
2020-11-02 05:00:00 16.1 7 Sudeste 11 Sudeste 0 1015.6 -- 93
2020-11-02 04:00:00 15.2 3 Nordeste 5 Sudoeste 0 1015.6 -- 91
2020-11-02 03:00:00 14.6 6 Sudoeste 8 Sudoeste 0 1016 -- 89
2020-11-02 02:00:00 14.7 6 Sudoeste 8 Sudoeste 0 1016 -- 92
2020-11-02 01:00:00 15.2 5 Oeste 9 Sudoeste 0 1016.4 -- 92
2020-11-02 00:00:00 15.4 5 Sudoeste 8 Sudoeste 0 1016.7 -- 92
2020-11-01 23:00:00 16.2 5 Sudoeste 9 Sudeste 0 1017 -- 87
2020-11-01 22:00:00 17.5 7 Sudeste 13 Sudeste 0 1017.2 -- 91
2020-11-01 21:00:00 17.4 3 Sudeste 10 Sudeste 0 1017 -- 91
2020-11-01 20:00:00 17.2 4 Sudeste 5 Sudeste 0 1016.9 -- 91
2020-11-01 19:00:00 17.7 2 Sudeste 6 Este 0 1016.6 -- 88
2020-11-01 18:00:00 18.5 5 Este 8 Nordeste 0 1016.3 -- 84
2020-11-01 17:00:00 19.2 6 Este 13 Este 0 1016.4 -- 81
2020-11-01 16:00:00 19.8 6 Este 14 Este 0 1016.6 -- 77
2020-11-01 15:00:00 19.5 9 Nordeste 14 Este 0 1017 -- 77
2020-11-01 14:00:00 19.6 9 Este 18 Este 0 1017.2 -- 79
2020-11-01 13:00:00 18.9 9 Este 22 Nordeste 0 1017.9 -- 81
2020-11-01 12:00:00 18.9 10 Nordeste 15 Nordeste 0 1018.5 -- 81
2020-11-01 11:00:00 17.5 7 Nordeste 12 Nordeste 0 1018.8 -- 87
2020-11-01 10:00:00 16.3 8 Sudeste 16 Sudeste 0 1018.6 -- 94
2020-11-01 09:00:00 16.2 4 Sur 8 Sur 0 1018.3 -- 95
2020-11-01 08:00:00 15.4 2 Oeste 6 Oeste 0 1018 -- 96
2020-11-01 07:00:00 15 3 Oeste 8 Norte 0 1017.7 -- 96
2020-11-01 06:00:00 14.3 5 Sudoeste 6 Norte 0 1017.3 -- 95
2020-11-01 05:00:00 14.7 7 Sudoeste 8 Sudoeste 0 1017.5 -- 95
2020-11-01 04:00:00 14.7 3 Oeste 8 Oeste 0 1017.5 -- 94
2020-11-01 03:00:00 15.3 4 Oeste 8 Sudoeste 0 1018 -- 95
2020-11-01 02:00:00 15.2 3 Oeste 10 Noroeste 0 1018.2 -- 92
2020-11-01 01:00:00 15.7 3 Noroeste 6 Sudoeste 0 1018.3 -- 90
2020-11-01 00:00:00 15.4 4 Noroeste 6 Noroeste 0 1018.6 -- 87
2020-10-31 23:00:00 16 2 Sudoeste 6 Sudoeste 0 1018.6 -- 86
2020-10-31 22:00:00 16.5 3 Oeste 6 Sudoeste 0 1018.7 -- 84
2020-10-31 21:00:00 17 3 Sudoeste 7 Noroeste 0 1018.2 -- 82
2020-10-31 20:00:00 18 5 Noroeste 12 Noroeste 0 1017.9 -- 85
2020-10-31 19:00:00 18.3 8 Norte 11 Norte 0 1017.5 -- 82
2020-10-31 18:00:00 19.3 6 Noroeste 18 Noroeste 0 1017.3 -- 78
2020-10-31 17:00:00 19.9 8 Noroeste 20 Noroeste 0 1017.5 -- 75
2020-10-31 16:00:00 20.3 12 Noroeste 19 Noroeste 0 1017.5 -- 73
2020-10-31 15:00:00 20.8 10 Noroeste 16 Norte 0 1017.5 -- 71
2020-10-31 14:00:00 20.8 9 Noroeste 15 Noroeste 0 1017.9 -- 74
2020-10-31 13:00:00 20.6 9 Nordeste 18 Este 0 1018.3 -- 72
2020-10-31 12:00:00 21.5 12 Este 20 Este 0 1018.9 -- 69
2020-10-31 11:00:00 20.7 6 Nordeste 12 Norte 0 1019 -- 71
2020-10-31 10:00:00 20.2 4 Noroeste 12 Oeste 0 1019.1 -- 74
2020-10-31 09:00:00 18.2 4 Norte 13 Oeste 0 1018.7 -- 82
2020-10-31 08:00:00 17.5 4 Oeste 16 Sudoeste 0 1018 -- 84
2020-10-31 07:00:00 17.8 12 Sudoeste 18 Sudoeste 0 1017.8 -- 83
2020-10-31 06:00:00 17.6 8 Oeste 15 Sudoeste 0 1017.7 -- 84
2020-10-31 05:00:00 17.1 8 Oeste 15 Oeste 0 1017.2 -- 89
2020-10-31 04:00:00 17 3 Noroeste 13 Oeste 0 1017.3 -- 90
2020-10-31 03:00:00 16 3 Oeste 11 Sudoeste 0 1017.5 -- 89
2020-10-31 02:00:00 15.5 5 Oeste 10 Sudoeste 0 1017.5 -- 90
2020-10-31 01:00:00 16.2 4 Oeste 10 Sudoeste 0 1017.7 -- 89
2020-10-31 00:00:00 16.7 3 Oeste 10 Sudoeste 0 1017.9 -- 88
2020-10-30 23:00:00 17.2 7 Sudoeste 9 Sudoeste 0 1018 -- 86
2020-10-30 22:00:00 17.3 7 Sudoeste 9 Sudoeste 0 1017.9 -- 85
2020-10-30 21:00:00 17.9 5 Sudoeste 8 Sudoeste 0 1017.6 -- 83
2020-10-30 20:00:00 18.6 4 Sudoeste 5 Noroeste 0 1017.4 -- 81
2020-10-30 19:00:00 19.1 4 Norte 12 Nordeste 0 1017.1 -- 82
2020-10-30 18:00:00 19.7 6 Este 17 Este 0 1016.7 -- 79
2020-10-30 17:00:00 20 8 Este 17 Nordeste 0 1016.8 -- 78
2020-10-30 16:00:00 20.2 12 Nordeste 21 Este 0 1016.5 -- 78
2020-10-30 15:00:00 20.3 12 Nordeste 23 Este 0 1016.9 -- 76
2020-10-30 14:00:00 20.9 12 Nordeste 21 Este 0 1017.3 -- 73
2020-10-30 13:00:00 21.1 11 Este 19 Este 0 1017.9 -- 72
2020-10-30 12:00:00 21.2 13 Este 21 Este 0 1018.6 -- 69
2020-10-30 11:00:00 21.2 10 Este 22 Este 0 1018.7 -- 71
2020-10-30 10:00:00 20.5 10 Este 17 Este 0 1018.9 -- 73
2020-10-30 09:00:00 19.4 11 Este 16 Este 0 1018.7 -- 81
2020-10-30 08:00:00 18 8 Este 12 Este 0 1018 -- 87
2020-10-30 07:00:00 17.6 6 Sudeste 9 Este 0 1017.6 -- 89
2020-10-30 06:00:00 17.6 5 Sudeste 8 Sudeste 0 1017.5 -- 91
2020-10-30 05:00:00 17.5 5 Sudeste 8 Sudeste 0 1017.3 -- 90
2020-10-30 04:00:00 17.6 5 Sudeste 8 Sudeste 0 1017.4 -- 89
2020-10-30 03:00:00 18.2 6 Sudeste 12 Este 0 1017.6 -- 88
2020-10-30 02:00:00 18.4 10 Este 16 Este 0 1017.7 -- 89
2020-10-30 01:00:00 17.8 5 Sudeste 12 Sudeste 0 1018 -- 86
2020-10-30 00:00:00 17 7 Sudeste 10 Sudeste 0 1018.3 -- 85
2020-10-29 23:00:00 17 7 Sudeste 9 Sudeste 0 1018.5 -- 81
2020-10-29 22:00:00 17.5 7 Sudeste 13 Sur 0 1018.3 -- 78
2020-10-29 21:00:00 17.5 8 Sudeste 12 Sudeste 0 1018 -- 75
2020-10-29 20:00:00 17.9 8 Sudeste 12 Sudeste 0 1017.9 -- 78
2020-10-29 19:00:00 18.6 9 Sudeste 18 Sudeste 0 1017.8 -- 77
2020-10-29 18:00:00 19.4 14 Este 20 Este 0 1017.5 -- 72
2020-10-29 17:00:00 20 14 Este 21 Este 0 1017.5 -- 71
2020-10-29 16:00:00 20.4 13 Este 21 Este 0 1017.4 -- 74
2020-10-29 15:00:00 21 13 Este 20 Este 0 1017.4 -- 66
2020-10-29 14:00:00 21.9 11 Este 21 Este 0 1017.8 -- 55
2020-10-29 13:00:00 21.4 14 Este 24 Este 0 1018.5 -- 55
2020-10-29 12:00:00 22.1 13 Sudeste 21 Sudeste 0 1019 -- 55
2020-10-29 11:00:00 21.2 12 Sudeste 20 Sudeste 0 1019.2 -- 69
2020-10-29 10:00:00 -- -- -- -- -- -- -- -- --
2020-10-29 09:00:00 17.5 4 Sudeste 8 Este 0 1018.6 -- 78
2020-10-29 08:00:00 14.4 6 Sudoeste 8 Sudoeste 0 1018 -- 83
2020-10-29 07:00:00 14.5 7 Norte 9 Noroeste 0 1017.3 -- 85
2020-10-29 06:00:00 14.5 3 Norte 5 Sudoeste 0 1016.8 -- 86
2020-10-29 05:00:00 14.4 3 Norte 8 Norte 0 1016.8 -- 83
2020-10-29 04:00:00 14.2 0 Calma 8 Sudoeste 0 1016.6 -- 82
2020-10-29 03:00:00 14.2 5 Noroeste 9 Sudoeste 0 1017 -- 81
2020-10-29 02:00:00 14 9 Noroeste 12 Noroeste 0 1017 -- 80
2020-10-29 01:00:00 14.1 8 Noroeste 10 Noroeste 0 1017.2 -- 78
2020-10-29 00:00:00 15.1 4 Sudoeste 9 Sudoeste 0 1017.2 -- 74
2020-10-28 23:00:00 15.7 3 Nordeste 8 Sur 0 1017.1 -- 77
2020-10-28 22:00:00 16.2 5 Sudeste 6 Sudeste 0 1016.9 -- 73
2020-10-28 21:00:00 16.8 4 Sudoeste 6 Sudoeste 0 1016.7 -- 69
2020-10-28 20:00:00 17.1 6 Sudoeste 8 Sudoeste 0 1016.3 -- 66
2020-10-28 19:00:00 17.9 5 Este 10 Este 0 1015.9 -- 67
2020-10-28 18:00:00 18.9 8 Este 12 Este 0 1015.2 -- 61
2020-10-28 17:00:00 19.9 6 Este 15 Este 0 1014.9 -- 61
2020-10-28 16:00:00 20.2 11 Nordeste 19 Este 0 1015 -- 57
2020-10-28 15:00:00 20.2 13 Nordeste 19 Nordeste 0 1015.1 -- 54
2020-10-28 14:00:00 20.9 13 Nordeste 19 Nordeste 0 1015.3 -- 49
2020-10-28 13:00:00 21 10 Este 17 Este 0 1015.8 -- 38
2020-10-28 12:00:00 21.4 10 Este 17 Este 0 1016.4 -- 37
2020-10-28 11:00:00 20.6 9 Este 13 Este 0 1016.4 -- 44
2020-10-28 10:00:00 19.6 6 Este 9 Este 0 1016.2 -- 43
2020-10-28 09:00:00 15.3 5 Norte 6 Sudoeste 0 1015.7 -- 56
2020-10-28 08:00:00 13.3 5 Sudoeste 11 Sudoeste 0 1014.8 -- 59
2020-10-28 07:00:00 12.1 4 Oeste 9 Oeste 0 1014.2 -- 55
2020-10-28 06:00:00 12.1 4 Sudoeste 9 Oeste 0 1013.8 -- 53
2020-10-28 05:00:00 12.4 2 Sudoeste 9 Noroeste 0 1013.5 -- 51
2020-10-28 04:00:00 13.4 4 Oeste 7 Noroeste 0 1013.3 -- 49
2020-10-28 03:00:00 13.6 4 Oeste 8 Sudoeste 0 1013.7 -- 50
2020-10-28 02:00:00 14 4 Sudoeste 8 Oeste 0 1014 -- 51
2020-10-28 01:00:00 14.9 3 Oeste 10 Oeste 0 1014.5 -- 51
2020-10-28 00:00:00 15.6 3 Oeste 17 Oeste 0 1014.7 -- 51